createdAt,value
2018-11-11T00:02:00.759Z,12.25
2018-11-11T00:04:29.329Z,12.24
2018-11-11T00:06:57.820Z,12.14
2018-11-11T00:09:26.475Z,12.11
2018-11-11T00:11:55.130Z,12.11
2018-11-11T00:14:23.680Z,12.15
2018-11-11T00:16:52.410Z,12.18
2018-11-11T00:19:21.279Z,12.19
2018-11-11T00:21:49.962Z,12.17
2018-11-11T00:24:18.536Z,12.13
2018-11-11T00:26:47.121Z,12.15
2018-11-11T00:29:15.777Z,12.15
2018-11-11T00:31:44.278Z,12.15
2018-11-11T00:34:13.054Z,12.15
2018-11-11T00:36:41.713Z,12.16
2018-11-11T00:39:11.287Z,12.23
2018-11-11T00:41:40.165Z,12.26
2018-11-11T00:44:08.889Z,12.21
2018-11-11T00:46:37.646Z,12.14
2018-11-11T00:49:06.811Z,12.15
2018-11-11T00:51:35.398Z,12.20
2018-11-11T00:54:05.646Z,12.01
2018-11-11T00:56:34.160Z,11.94
2018-11-11T00:59:04.063Z,11.89
2018-11-11T01:01:32.654Z,11.87
2018-11-11T01:04:03.469Z,11.85
2018-11-11T01:06:31.984Z,11.78
2018-11-11T01:09:00.475Z,11.80
2018-11-11T01:11:29.004Z,11.83
2018-11-11T01:13:57.630Z,11.88
2018-11-11T01:16:26.196Z,11.89
2018-11-11T01:18:54.727Z,11.88
2018-11-11T01:21:23.675Z,11.82
2018-11-11T01:23:52.186Z,11.77
2018-11-11T01:26:20.697Z,11.68
2018-11-11T01:28:49.615Z,11.71
2018-11-11T01:31:18.150Z,11.72
2018-11-11T01:33:46.658Z,11.67
2018-11-11T01:36:15.281Z,11.65
2018-11-11T01:38:43.814Z,11.68
2018-11-11T01:41:12.305Z,11.71
2018-11-11T01:43:40.876Z,11.84
2018-11-11T01:46:09.463Z,11.87
2018-11-11T01:48:38.402Z,11.90
2018-11-11T01:51:06.882Z,11.93
2018-11-11T01:53:35.383Z,11.96
2018-11-11T01:56:06.612Z,11.94
2018-11-11T01:58:35.214Z,11.97
2018-11-11T02:01:05.566Z,11.96
2018-11-11T02:03:34.314Z,11.94
2018-11-11T02:06:04.441Z,11.99
2018-11-11T02:08:32.954Z,11.89
2018-11-11T02:11:03.899Z,11.89
2018-11-11T02:13:32.585Z,11.92
2018-11-11T02:16:03.758Z,11.85
2018-11-11T02:18:32.551Z,11.86
2018-11-11T02:21:03.520Z,11.79
2018-11-11T02:23:32.037Z,11.71
2018-11-11T02:26:00.806Z,11.76
2018-11-11T02:28:29.312Z,11.79
2018-11-11T02:30:57.837Z,11.75
2018-11-11T02:33:26.321Z,11.67
2018-11-11T02:35:54.807Z,11.69
2018-11-11T02:38:23.331Z,11.63
2018-11-11T02:40:51.851Z,11.64
2018-11-11T02:43:20.394Z,11.62
2018-11-11T02:45:49.271Z,11.58
2018-11-11T02:48:17.801Z,11.58
2018-11-11T02:50:47.860Z,11.58
2018-11-11T02:53:16.338Z,11.56
2018-11-11T02:55:44.876Z,11.47
2018-11-11T02:58:13.539Z,11.44
2018-11-11T03:00:42.124Z,11.40
2018-11-11T03:03:10.976Z,11.41
2018-11-11T03:05:39.553Z,11.37
2018-11-11T03:08:08.204Z,11.32
2018-11-11T03:10:36.721Z,11.33
2018-11-11T03:13:07.065Z,11.28
2018-11-11T03:15:36.397Z,11.22
2018-11-11T03:18:11.534Z,11.20
2018-11-11T03:20:42.000Z,11.22
2018-11-11T03:23:10.504Z,11.29
2018-11-11T03:25:39.106Z,11.25
2018-11-11T03:28:07.621Z,11.27
2018-11-11T03:30:36.188Z,11.30
2018-11-11T03:33:05.768Z,11.34
2018-11-11T03:35:34.482Z,11.32
2018-11-11T03:38:05.555Z,11.38
2018-11-11T03:40:34.179Z,11.34
2018-11-11T03:43:04.970Z,11.25
2018-11-11T03:45:33.481Z,11.24
2018-11-11T03:48:06.089Z,11.22
2018-11-11T03:50:34.652Z,11.17
2018-11-11T03:53:05.042Z,11.13
2018-11-11T03:55:33.736Z,11.16
2018-11-11T03:58:03.684Z,11.08
2018-11-11T04:00:32.187Z,11.07
2018-11-11T04:03:00.986Z,11.07
2018-11-11T04:05:29.597Z,11.09
2018-11-11T04:07:58.194Z,11.00
2018-11-11T04:10:26.934Z,11.04
2018-11-11T04:12:55.462Z,11.10
2018-11-11T04:15:24.492Z,11.14
2018-11-11T04:17:52.997Z,11.18
2018-11-11T04:20:21.653Z,11.23
2018-11-11T04:22:50.217Z,11.31
2018-11-11T04:25:19.388Z,11.31
2018-11-11T04:27:47.920Z,11.29
2018-11-11T04:30:16.643Z,11.32
2018-11-11T04:32:45.391Z,11.33
2018-11-11T04:35:14.070Z,11.33
2018-11-11T04:37:42.544Z,11.31
2018-11-11T04:40:12.181Z,11.34
2018-11-11T04:42:40.685Z,11.36
2018-11-11T04:45:11.421Z,11.35
2018-11-11T04:47:39.899Z,11.36
2018-11-11T04:50:10.103Z,11.39
2018-11-11T04:52:38.723Z,11.44
2018-11-11T04:55:07.604Z,11.45
2018-11-11T04:57:36.106Z,11.45
2018-11-11T05:00:08.172Z,11.45
2018-11-11T05:02:36.659Z,11.49
2018-11-11T05:05:06.148Z,11.46
2018-11-11T05:07:34.696Z,11.49
2018-11-11T05:10:04.727Z,11.54
2018-11-11T05:12:33.248Z,11.51
2018-11-11T05:15:02.942Z,11.46
2018-11-11T05:17:31.488Z,11.47
2018-11-11T05:19:59.973Z,11.52
2018-11-11T05:22:28.636Z,11.56
2018-11-11T05:24:57.122Z,11.57
2018-11-11T05:27:25.925Z,11.58
2018-11-11T05:29:54.534Z,11.56
2018-11-11T05:32:23.074Z,11.60
2018-11-11T05:34:51.560Z,11.57
2018-11-11T05:37:20.359Z,11.62
2018-11-11T05:39:48.969Z,11.66
2018-11-11T05:42:17.466Z,11.73
2018-11-11T05:44:45.997Z,11.76
2018-11-11T05:47:14.514Z,11.76
2018-11-11T05:49:43.071Z,11.79
2018-11-11T05:52:12.066Z,11.74
2018-11-11T05:54:40.623Z,11.71
2018-11-11T05:57:09.248Z,11.76
2018-11-11T05:59:37.764Z,11.71
2018-11-11T06:02:06.254Z,11.73
2018-11-11T06:04:34.770Z,11.80
2018-11-11T06:07:05.577Z,11.75
2018-11-11T06:09:34.120Z,11.78
2018-11-11T06:12:04.168Z,11.80
2018-11-11T06:14:33.054Z,11.72
2018-11-11T06:17:02.661Z,11.72
2018-11-11T06:19:31.169Z,11.82
2018-11-11T06:21:59.684Z,11.82
2018-11-11T06:24:28.526Z,11.82
2018-11-11T06:26:57.078Z,11.76
2018-11-11T06:29:25.637Z,11.83
2018-11-11T06:31:54.174Z,11.77
2018-11-11T06:34:22.696Z,11.94
2018-11-11T06:36:51.375Z,11.82
2018-11-11T06:39:19.977Z,11.86
2018-11-11T06:41:48.524Z,11.94
2018-11-11T06:44:17.267Z,11.88
2018-11-11T06:46:45.817Z,11.81
2018-11-11T06:49:17.748Z,11.82
2018-11-11T06:51:46.290Z,11.82
2018-11-11T06:54:14.896Z,11.86
2018-11-11T06:56:43.381Z,11.75
2018-11-11T06:59:12.175Z,11.68
2018-11-11T07:01:40.798Z,11.67
2018-11-11T07:04:09.354Z,11.64
2018-11-11T07:06:37.905Z,11.64
2018-11-11T07:09:07.345Z,11.65
2018-11-11T07:11:35.854Z,11.66
2018-11-11T07:14:05.735Z,11.58
2018-11-11T07:16:34.293Z,11.58
2018-11-11T07:19:04.535Z,11.63
2018-11-11T07:21:33.124Z,11.55
2018-11-11T07:24:04.235Z,11.58
2018-11-11T07:26:32.741Z,11.70
2018-11-11T07:29:03.441Z,11.71
2018-11-11T07:31:32.006Z,11.71
2018-11-11T07:34:00.735Z,11.69
2018-11-11T07:36:29.409Z,11.86
2018-11-11T07:38:57.934Z,11.64
2018-11-11T07:41:26.523Z,11.76
2018-11-11T07:43:55.098Z,11.66
2018-11-11T07:46:23.845Z,11.80
2018-11-11T07:48:52.349Z,11.78
2018-11-11T07:51:20.836Z,11.78
2018-11-11T07:53:49.368Z,11.74
2018-11-11T07:56:17.856Z,11.77
2018-11-11T07:58:46.623Z,11.75
2018-11-11T08:01:15.102Z,11.82
2018-11-11T08:03:43.615Z,11.71
2018-11-11T08:06:12.155Z,11.78
2018-11-11T08:08:40.643Z,11.71
2018-11-11T08:11:20.390Z,11.68
2018-11-11T08:13:48.908Z,11.62
2018-11-11T08:16:17.397Z,11.58
2018-11-11T08:18:46.112Z,11.64
2018-11-11T08:21:14.681Z,11.66
2018-11-11T08:23:43.695Z,11.65
2018-11-11T08:26:28.814Z,11.54
2018-11-11T08:32:05.483Z,11.43
2018-11-11T08:34:39.818Z,11.47
2018-11-11T08:37:20.321Z,11.51
2018-11-11T08:39:48.796Z,11.51
2018-11-11T08:42:17.295Z,11.50
2018-11-11T08:44:45.813Z,11.49
2018-11-11T08:47:14.304Z,11.58
2018-11-11T08:49:42.868Z,11.59
2018-11-11T08:52:11.406Z,11.64
2018-11-11T08:54:39.989Z,11.76
2018-11-11T08:57:08.553Z,11.73
2018-11-11T08:59:37.108Z,11.90
2018-11-11T09:02:06.117Z,11.78
2018-11-11T09:04:34.793Z,11.76
2018-11-11T09:07:06.332Z,11.85
2018-11-11T09:09:35.006Z,11.72
2018-11-11T09:12:05.211Z,11.82
2018-11-11T09:14:33.768Z,11.88
2018-11-11T09:17:04.252Z,11.94
2018-11-11T09:19:33.025Z,11.98
2018-11-11T09:22:02.753Z,11.93
2018-11-11T09:24:32.305Z,12.01
2018-11-11T09:27:02.771Z,12.09
2018-11-11T09:29:31.473Z,12.13
2018-11-11T09:32:00.090Z,12.17
2018-11-11T09:34:28.610Z,12.15
2018-11-11T09:36:57.172Z,12.24
2018-11-11T09:39:25.685Z,12.26
2018-11-11T09:41:54.196Z,12.39
2018-11-11T09:44:22.785Z,12.40
2018-11-11T09:46:51.277Z,12.50
2018-11-11T09:49:20.063Z,12.51
2018-11-11T09:51:48.578Z,12.59
2018-11-11T09:54:17.153Z,12.68
2018-11-11T09:56:45.784Z,12.75
2018-11-11T09:59:14.306Z,12.86
2018-11-11T10:01:42.858Z,12.87
2018-11-11T10:05:14.861Z,13.08
2018-11-11T10:08:50.660Z,13.22
2018-11-11T10:11:25.348Z,13.40
2018-11-11T10:13:59.368Z,13.27
2018-11-11T10:16:34.280Z,13.33
2018-11-11T10:19:11.210Z,13.49
2018-11-11T10:21:44.090Z,13.61
2018-11-11T10:26:21.885Z,13.72
2018-11-11T10:29:07.528Z,13.77
2018-11-11T10:31:47.506Z,13.92
2018-11-11T10:34:24.635Z,14.07
2018-11-11T10:37:02.748Z,14.03
2018-11-11T10:41:38.537Z,13.95
2018-11-11T10:44:12.014Z,13.89
2018-11-11T10:46:45.797Z,13.85
2018-11-11T10:49:16.761Z,13.78
2018-11-11T10:51:45.297Z,13.86
2018-11-11T10:54:13.871Z,13.90
2018-11-11T10:56:42.457Z,14.04
2018-11-11T10:59:10.980Z,14.08
2018-11-11T11:01:44.654Z,14.26
2018-11-11T11:04:13.259Z,14.19
2018-11-11T11:06:46.929Z,14.13
2018-11-11T11:09:15.699Z,14.01
2018-11-11T11:11:44.856Z,14.17
2018-11-11T11:14:14.021Z,14.32
2018-11-11T11:16:42.585Z,14.48
2018-11-11T11:19:11.209Z,14.81
2018-11-11T11:21:39.820Z,14.99
2018-11-11T11:24:08.380Z,14.93
2018-11-11T11:26:36.913Z,14.95
2018-11-11T11:29:05.663Z,15.04
2018-11-11T11:31:34.242Z,14.88
2018-11-11T11:34:04.416Z,14.78
2018-11-11T11:36:33.097Z,14.71
2018-11-11T11:39:02.893Z,14.56
2018-11-11T11:41:31.453Z,14.47
2018-11-11T11:44:00.146Z,14.41
2018-11-11T11:46:28.769Z,14.51
2018-11-11T11:48:57.284Z,14.58
2018-11-11T11:51:26.126Z,14.55
2018-11-11T11:53:54.682Z,14.63
2018-11-11T11:56:23.239Z,14.55
2018-11-11T11:58:51.812Z,14.55
2018-11-11T12:01:20.355Z,14.52
2018-11-11T12:03:48.876Z,14.47
2018-11-11T12:06:17.457Z,14.40
2018-11-11T12:08:46.333Z,14.60
2018-11-11T12:11:14.846Z,14.89
2018-11-11T12:13:43.402Z,15.15
2018-11-11T12:16:12.062Z,15.35
2018-11-11T12:18:40.558Z,15.35
2018-11-11T12:21:09.168Z,15.29
2018-11-11T12:23:38.025Z,15.18
2018-11-11T12:26:06.731Z,15.05
2018-11-11T12:28:35.266Z,14.94
2018-11-11T12:31:05.683Z,14.81
2018-11-11T12:33:34.213Z,14.75
2018-11-11T12:36:05.158Z,14.83
2018-11-11T12:38:33.658Z,14.86
2018-11-11T12:41:04.059Z,14.73
2018-11-11T12:43:43.657Z,14.79
2018-11-11T12:46:12.196Z,14.62
2018-11-11T12:48:40.717Z,14.61
2018-11-11T12:51:09.629Z,14.54
2018-11-11T12:53:38.351Z,14.47
2018-11-11T12:56:09.010Z,14.47
2018-11-11T12:58:37.668Z,14.48
2018-11-11T13:01:06.613Z,14.46
2018-11-11T13:03:35.203Z,14.51
2018-11-11T13:06:05.314Z,14.45
2018-11-11T13:08:33.894Z,14.41
2018-11-11T13:11:03.378Z,14.41
2018-11-11T13:13:31.924Z,14.30
2018-11-11T13:16:00.451Z,14.40
2018-11-11T13:18:29.001Z,14.40
2018-11-11T13:20:57.758Z,14.40
2018-11-11T13:23:26.433Z,14.39
2018-11-11T13:26:02.699Z,14.35
2018-11-11T13:28:37.328Z,14.48
2018-11-11T13:31:06.729Z,14.43
2018-11-11T13:33:41.516Z,14.39
2018-11-11T13:36:10.220Z,14.33
2018-11-11T13:38:38.877Z,14.48
2018-11-11T13:41:07.371Z,14.53
2018-11-11T13:43:36.021Z,14.50
2018-11-11T13:46:06.024Z,14.41
2018-11-11T13:48:34.702Z,14.45
2018-11-11T13:51:04.153Z,14.22
2018-11-11T13:53:32.760Z,14.22
2018-11-11T13:56:02.402Z,14.37
2018-11-11T13:58:30.945Z,14.35
2018-11-11T14:00:59.475Z,14.27
2018-11-11T14:03:28.217Z,14.32
2018-11-11T14:05:56.752Z,14.29
2018-11-11T14:08:25.455Z,14.07
2018-11-11T14:10:54.038Z,14.20
2018-11-11T14:13:22.554Z,14.24
2018-11-11T14:15:51.704Z,14.17
2018-11-11T14:18:22.964Z,14.09
2018-11-11T14:20:51.404Z,13.97
2018-11-11T14:23:19.921Z,13.95
2018-11-11T14:25:48.497Z,13.90
2018-11-11T14:28:17.025Z,13.83
2018-11-11T14:30:45.614Z,13.82
2018-11-11T14:33:14.462Z,13.69
2018-11-11T14:35:43.029Z,13.68
2018-11-11T14:38:11.632Z,13.67
2018-11-11T14:40:40.152Z,13.61
2018-11-11T14:43:09.125Z,13.59
2018-11-11T14:45:38.112Z,13.58
2018-11-11T14:48:06.728Z,13.60
2018-11-11T14:50:35.357Z,13.67
2018-11-11T14:53:05.489Z,13.70
2018-11-11T14:55:34.015Z,13.70
2018-11-11T14:58:03.916Z,13.63
2018-11-11T15:00:33.662Z,13.50
2018-11-11T15:03:08.212Z,13.53
2018-11-11T15:05:36.864Z,13.51
2018-11-11T15:08:06.324Z,13.45
2018-11-11T15:10:34.882Z,13.43
2018-11-11T15:13:04.657Z,13.36
2018-11-11T15:15:33.180Z,13.32
2018-11-11T15:18:02.718Z,13.29
2018-11-11T15:20:31.475Z,13.23
2018-11-11T15:23:00.034Z,13.22
2018-11-11T15:25:29.676Z,13.12
2018-11-11T15:27:58.176Z,13.05
2018-11-11T15:30:28.160Z,12.97
2018-11-11T15:32:57.499Z,13.10
2018-11-11T15:35:26.061Z,13.05
2018-11-11T15:37:54.620Z,13.00
2018-11-11T15:40:24.745Z,13.01
2018-11-11T15:42:53.312Z,12.99
2018-11-11T15:45:23.243Z,12.84
2018-11-11T15:47:51.834Z,12.96
2018-11-11T15:50:21.747Z,12.93
2018-11-11T15:52:54.342Z,12.87
2018-11-11T15:55:23.972Z,12.72
2018-11-11T15:57:52.567Z,12.78
2018-11-11T16:00:23.546Z,12.64
2018-11-11T16:02:52.228Z,12.60
2018-11-11T16:05:21.284Z,12.66
2018-11-11T16:07:50.937Z,12.64
2018-11-11T16:10:23.036Z,12.48
2018-11-11T16:12:51.951Z,12.50
2018-11-11T16:15:22.854Z,12.41
2018-11-11T16:17:53.645Z,12.30
2018-11-11T16:20:23.649Z,12.27
2018-11-11T16:22:53.358Z,12.18
2018-11-11T16:25:21.906Z,12.11
2018-11-11T16:27:50.628Z,12.09
2018-11-11T16:30:22.423Z,12.13
2018-11-11T16:32:52.596Z,12.11
2018-11-11T16:35:22.367Z,12.09
2018-11-11T16:37:51.267Z,12.02
2018-11-11T16:40:22.083Z,11.97
2018-11-11T16:42:51.037Z,11.88
2018-11-11T16:45:20.918Z,11.87
2018-11-11T16:47:49.542Z,11.90
2018-11-11T16:50:21.044Z,11.85
2018-11-11T16:52:50.412Z,11.92
2018-11-11T16:55:20.403Z,11.87
2018-11-11T16:57:49.495Z,11.92
2018-11-11T17:00:21.511Z,11.79
2018-11-11T17:02:50.617Z,11.70
2018-11-11T17:05:21.324Z,11.70
2018-11-11T17:07:50.050Z,11.71
2018-11-11T17:10:20.759Z,11.86
2018-11-11T17:12:50.371Z,11.79
2018-11-11T17:15:20.458Z,11.73
2018-11-11T17:17:49.147Z,11.62
2018-11-11T17:20:19.010Z,11.59
2018-11-11T17:22:48.555Z,11.55
2018-11-11T17:25:18.261Z,11.53
2018-11-11T17:27:47.220Z,11.54
2018-11-11T17:30:17.871Z,11.54
2018-11-11T17:32:47.964Z,11.54
2018-11-11T17:35:16.593Z,11.50
2018-11-11T17:37:45.269Z,11.55
2018-11-11T17:40:16.000Z,11.50
2018-11-11T17:42:45.884Z,11.52
2018-11-11T17:45:14.833Z,11.51
2018-11-11T17:47:44.051Z,11.51
2018-11-11T17:50:23.902Z,11.52
2018-11-11T17:52:52.768Z,11.49
2018-11-11T17:55:22.574Z,11.48
2018-11-11T17:57:51.164Z,11.46
2018-11-11T18:00:21.114Z,11.39
2018-11-11T18:02:50.188Z,11.41
2018-11-11T18:05:20.134Z,11.31
2018-11-11T18:07:48.788Z,11.31
2018-11-11T18:10:23.091Z,11.27
2018-11-11T18:12:52.385Z,11.23
2018-11-11T18:15:23.503Z,11.27
2018-11-11T18:17:52.616Z,11.34
2018-11-11T18:20:24.125Z,11.29
2018-11-11T18:22:53.565Z,11.28
2018-11-11T18:25:22.788Z,11.30
2018-11-11T18:27:51.704Z,11.30
2018-11-11T18:30:31.128Z,11.32
2018-11-11T18:32:59.778Z,11.24
2018-11-11T18:35:33.603Z,11.18
2018-11-11T18:38:07.886Z,11.17
2018-11-11T18:40:36.467Z,11.17
2018-11-11T18:43:06.503Z,11.09
2018-11-11T18:45:35.117Z,11.12
2018-11-11T18:48:05.845Z,11.12
2018-11-11T18:50:38.966Z,11.11
2018-11-11T18:53:07.575Z,11.07
2018-11-11T18:55:36.143Z,11.10
2018-11-11T18:58:05.717Z,11.04
2018-11-11T19:00:35.133Z,11.00
2018-11-11T19:03:05.819Z,11.04
2018-11-11T19:05:34.526Z,11.06
2018-11-11T19:08:05.901Z,10.93
2018-11-11T19:10:35.682Z,10.93
2018-11-11T19:13:07.184Z,10.90
2018-11-11T19:15:35.877Z,10.86
2018-11-11T19:18:06.916Z,11.02
2018-11-11T19:20:35.810Z,11.06
2018-11-11T19:23:05.927Z,11.02
2018-11-11T19:25:34.782Z,11.04
2018-11-11T19:28:05.200Z,11.04
2018-11-11T19:30:34.538Z,11.00
2018-11-11T19:33:05.406Z,11.01
2018-11-11T19:35:34.208Z,10.99
2018-11-11T19:38:04.675Z,10.97
2018-11-11T19:40:33.788Z,10.99
2018-11-11T19:43:06.657Z,10.98
2018-11-11T19:45:35.341Z,10.95
2018-11-11T19:48:06.319Z,10.90
2018-11-11T19:50:36.016Z,10.92
2018-11-11T19:53:05.420Z,10.87
2018-11-11T19:55:35.767Z,10.86
2018-11-11T19:58:07.460Z,10.83
2018-11-11T20:00:39.978Z,10.81
2018-11-11T20:03:09.462Z,10.80
2018-11-11T20:05:38.113Z,10.75
2018-11-11T20:08:07.077Z,10.75
2018-11-11T20:10:35.760Z,10.78
2018-11-11T20:13:05.749Z,10.87
2018-11-11T20:15:35.329Z,10.82
2018-11-11T20:18:05.985Z,10.82
2018-11-11T20:20:36.165Z,10.79
2018-11-11T20:23:05.777Z,10.72
2018-11-11T20:25:34.853Z,10.59
2018-11-11T20:28:07.479Z,10.57
2018-11-11T20:30:37.526Z,10.58
2018-11-11T20:33:06.791Z,10.60
2018-11-11T20:35:36.538Z,10.58
2018-11-11T20:38:06.069Z,10.54
2018-11-11T20:40:35.008Z,10.47
2018-11-11T20:43:06.828Z,10.40
2018-11-11T20:45:36.356Z,10.28
2018-11-11T20:48:07.469Z,10.14
2018-11-11T20:50:36.118Z,10.17
2018-11-11T20:53:08.580Z,10.18
2018-11-11T20:55:37.401Z,10.07
2018-11-11T20:58:06.906Z,9.98
2018-11-11T21:00:36.917Z,9.93
2018-11-11T21:03:06.387Z,9.90
2018-11-11T21:05:35.202Z,9.93
2018-11-11T21:08:08.000Z,9.92
2018-11-11T21:10:36.801Z,9.95
2018-11-11T21:13:07.265Z,9.87
2018-11-11T21:15:35.943Z,9.84
2018-11-11T21:18:07.769Z,9.88
2018-11-11T21:20:36.357Z,9.87
2018-11-11T21:23:08.420Z,9.86
2018-11-11T21:25:37.405Z,9.80
2018-11-11T21:28:06.717Z,9.75
2018-11-11T21:30:35.467Z,9.76
2018-11-11T21:33:05.385Z,9.79
2018-11-11T21:35:33.938Z,9.72
2018-11-11T21:38:04.469Z,9.66
2018-11-11T21:40:33.044Z,9.67
2018-11-11T21:43:03.164Z,9.63
2018-11-11T21:45:31.761Z,9.62
2018-11-11T21:48:00.301Z,9.57
2018-11-11T21:50:29.206Z,9.65
2018-11-11T21:53:09.495Z,9.64
2018-11-11T21:55:38.142Z,9.64
2018-11-11T21:58:06.678Z,9.65
2018-11-11T22:00:35.347Z,9.63
2018-11-11T22:03:05.864Z,9.64
2018-11-11T22:05:34.445Z,9.67
2018-11-11T22:08:20.770Z,9.67
2018-11-11T22:10:52.036Z,9.66
2018-11-11T22:13:21.231Z,9.66
2018-11-11T22:15:50.000Z,9.66
2018-11-11T22:18:18.703Z,9.68
2018-11-11T22:20:47.317Z,9.66
2018-11-11T22:23:15.805Z,9.64
2018-11-11T22:25:44.361Z,9.64
2018-11-11T22:28:13.066Z,9.51
2018-11-11T22:30:41.540Z,9.52
2018-11-11T22:33:10.135Z,9.55
2018-11-11T22:35:38.697Z,9.42
2018-11-11T22:38:07.300Z,9.43
2018-11-11T22:40:36.945Z,9.43
2018-11-11T22:43:06.067Z,9.33
2018-11-11T22:45:34.665Z,9.33
2018-11-11T22:48:05.744Z,9.34
2018-11-11T22:50:34.463Z,9.19
2018-11-11T22:53:06.436Z,9.27
2018-11-11T22:55:36.321Z,9.28
2018-11-11T22:58:06.915Z,9.31
2018-11-11T23:00:35.453Z,9.34
2018-11-11T23:03:05.842Z,9.41
2018-11-11T23:05:34.504Z,9.44
2018-11-11T23:08:05.460Z,9.47
2018-11-11T23:10:34.159Z,9.53
2018-11-11T23:13:04.252Z,9.51
2018-11-11T23:15:32.772Z,9.50
2018-11-11T23:18:03.297Z,9.55
2018-11-11T23:20:31.844Z,9.47
2018-11-11T23:23:00.400Z,9.51
2018-11-11T23:25:29.043Z,9.44
2018-11-11T23:27:57.925Z,9.39
2018-11-11T23:30:26.425Z,9.36
2018-11-11T23:32:55.104Z,9.44
2018-11-11T23:35:23.636Z,9.41
2018-11-11T23:37:52.141Z,9.41
2018-11-11T23:40:20.718Z,9.31
2018-11-11T23:42:49.316Z,9.28
2018-11-11T23:45:18.318Z,9.33
2018-11-11T23:47:46.829Z,9.37
2018-11-11T23:50:19.281Z,9.34
2018-11-11T23:52:48.305Z,9.41
2018-11-11T23:55:18.292Z,9.45
2018-11-11T23:57:46.851Z,9.41
